Time;durP1;ratioP1;P1;durP2;ratioP2;P2;SDS_P1;SDS_P2;PMS_P1;PMS_P2;Temp;Humidity;BMP_temperature;BMP_pressure;BME280_temperature;BME280_humidity;BME280_pressure;Samples;Min_cycle;Max_cycle;Signal;HPM_P1;HPM_P2
2023/12/16 00:02:13;;;;;;;;;;;11.60;87.80;;;;;;4957242;28;19906;-78
2023/12/16 00:04:40;;;;;;;;;;;11.60;88.40;;;;;;4974538;28;19910;-78
2023/12/16 00:07:06;;;;;;;;;;;11.60;87.80;;;;;;4957219;28;19910;-79
2023/12/16 00:09:31;;;;;;;;;;;11.60;87.80;;;;;;4957071;28;19906;-78
2023/12/16 00:11:57;;;;;;;;;;;11.60;87.70;;;;;;4957060;28;19910;-78
2023/12/16 00:14:23;;;;;;;;;;;11.60;87.80;;;;;;4957584;28;19906;-78
2023/12/16 00:16:48;;;;;;;;;;;11.60;87.80;;;;;;4957221;28;19906;-78
2023/12/16 00:19:14;;;;;;;;;;;11.60;87.80;;;;;;4956990;28;19906;-79
2023/12/16 00:21:39;;;;;;;;;;;11.60;87.80;;;;;;4956983;28;19993;-79
2023/12/16 00:24:06;;;;;;;;;;;11.60;87.80;;;;;;4957111;28;20021;-79
2023/12/16 00:26:32;;;;;;;;;;;11.60;87.80;;;;;;4956926;28;19957;-79
2023/12/16 00:28:57;;;;;;;;;;;11.60;87.80;;;;;;4973933;28;19906;-79
2023/12/16 00:31:23;;;;;;;;;;;11.60;87.90;;;;;;4957033;28;20640;-78
2023/12/16 00:33:48;;;;;;;;;;;11.60;87.80;;;;;;4956603;28;19921;-79
2023/12/16 00:36:14;;;;;;;;;;;11.60;87.70;;;;;;4956595;28;19917;-78
2023/12/16 00:38:39;;;;;;;;;;;11.60;87.80;;;;;;4956620;28;19929;-78
2023/12/16 00:41:05;;;;;;;;;;;11.60;87.80;;;;;;4956624;28;20012;-78
2023/12/16 00:43:31;;;;;;;;;;;11.60;87.80;;;;;;4974004;28;19910;-78
2023/12/16 00:45:56;;;;;;;;;;;11.60;87.70;;;;;;4974313;28;19982;-78
2023/12/16 00:48:22;;;;;;;;;;;11.60;87.70;;;;;;4956743;28;19906;-78
2023/12/16 00:50:47;;;;;;;;;;;11.60;87.70;;;;;;4956845;28;20275;-78
2023/12/16 00:53:13;;;;;;;;;;;11.60;87.80;;;;;;4956774;28;20359;-79
2023/12/16 00:55:41;;;;;;;;;;;11.60;87.70;;;;;;4956890;28;19906;-78
2023/12/16 00:58:07;;;;;;;;;;;11.60;87.70;;;;;;4956847;28;19933;-79
2023/12/16 01:00:32;;;;;;;;;;;11.60;87.70;;;;;;4956608;28;19914;-78
2023/12/16 01:02:58;;;;;;;;;;;11.60;87.70;;;;;;4956550;28;19913;-78
2023/12/16 01:05:24;;;;;;;;;;;11.60;87.70;;;;;;4956838;28;19913;-79
2023/12/16 01:07:49;;;;;;;;;;;11.60;87.70;;;;;;4957067;28;19952;-79
2023/12/16 01:10:15;;;;;;;;;;;11.60;87.80;;;;;;4953216;28;19910;-78
2023/12/16 01:12:40;;;;;;;;;;;11.60;87.80;;;;;;4956604;28;20263;-78
2023/12/16 01:15:06;;;;;;;;;;;11.60;87.80;;;;;;4956678;28;19975;-79
2023/12/16 01:17:32;;;;;;;;;;;11.60;87.70;;;;;;4956631;28;19906;-79
2023/12/16 01:19:58;;;;;;;;;;;11.60;87.70;;;;;;4956355;28;19906;-78
2023/12/16 01:22:23;;;;;;;;;;;11.60;87.70;;;;;;4968832;28;20297;-78
2023/12/16 01:24:49;;;;;;;;;;;11.60;87.80;;;;;;4975995;28;20301;-80
2023/12/16 01:27:14;;;;;;;;;;;11.60;87.70;;;;;;4993474;28;19912;-78
2023/12/16 01:29:40;;;;;;;;;;;11.60;87.60;;;;;;4992797;28;19906;-78
2023/12/16 01:32:05;;;;;;;;;;;11.60;87.70;;;;;;4993182;28;19909;-79
2023/12/16 01:34:31;;;;;;;;;;;11.60;87.60;;;;;;4979247;28;19913;-79
2023/12/16 01:36:56;;;;;;;;;;;11.60;87.60;;;;;;4996857;28;20341;-78
2023/12/16 01:39:22;;;;;;;;;;;11.60;87.70;;;;;;4978899;28;20390;-80
2023/12/16 01:41:47;;;;;;;;;;;11.60;87.60;;;;;;4979194;28;20449;-78
2023/12/16 01:44:13;;;;;;;;;;;11.60;87.70;;;;;;4979000;28;19910;-78
2023/12/16 01:46:39;;;;;;;;;;;11.60;87.70;;;;;;4979331;28;19944;-79
2023/12/16 01:49:04;;;;;;;;;;;11.60;87.70;;;;;;4978792;28;19948;-78
2023/12/16 01:51:31;;;;;;;;;;;11.60;87.60;;;;;;4978789;28;19905;-80
2023/12/16 01:53:56;;;;;;;;;;;11.60;87.60;;;;;;4978918;28;19913;-78
2023/12/16 01:56:22;;;;;;;;;;;11.60;87.70;;;;;;4996500;28;20278;-79
2023/12/16 01:58:48;;;;;;;;;;;11.60;87.70;;;;;;4978309;28;19905;-78
2023/12/16 02:01:14;;;;;;;;;;;11.60;87.70;;;;;;4978773;28;19956;-79
2023/12/16 02:03:41;;;;;;;;;;;11.60;87.70;;;;;;4978709;28;19917;-79
2023/12/16 02:06:06;;;;;;;;;;;11.60;88.20;;;;;;4978897;28;19941;-79
2023/12/16 02:08:32;;;;;;;;;;;11.60;87.70;;;;;;4978644;28;19905;-79
2023/12/16 02:10:58;;;;;;;;;;;11.60;87.70;;;;;;4978529;28;20282;-78
2023/12/16 02:13:24;;;;;;;;;;;11.60;87.70;;;;;;4978897;28;19906;-78
2023/12/16 02:15:49;;;;;;;;;;;11.60;87.70;;;;;;4978652;28;20429;-79
2023/12/16 02:18:14;;;;;;;;;;;11.60;87.70;;;;;;4978360;28;19913;-78
2023/12/16 02:20:40;;;;;;;;;;;11.60;87.70;;;;;;4978497;28;19906;-78
2023/12/16 02:23:06;;;;;;;;;;;11.60;87.80;;;;;;4978274;28;19913;-78
2023/12/16 02:25:31;;;;;;;;;;;11.60;87.70;;;;;;4978462;28;19906;-78
2023/12/16 02:27:56;;;;;;;;;;;11.60;87.70;;;;;;4978462;28;19906;-79
2023/12/16 02:30:24;;;;;;;;;;;11.60;87.70;;;;;;4978393;28;19937;-79
2023/12/16 02:32:49;;;;;;;;;;;11.60;87.80;;;;;;4978138;28;19910;-78
2023/12/16 02:35:14;;;;;;;;;;;11.60;87.80;;;;;;4978529;28;20272;-78
2023/12/16 02:37:40;;;;;;;;;;;11.60;87.80;;;;;;4978383;28;19913;-80
2023/12/16 02:40:06;;;;;;;;;;;11.60;87.80;;;;;;4977933;28;20360;-79
2023/12/16 02:42:31;;;;;;;;;;;11.60;87.80;;;;;;4978259;28;19913;-79
2023/12/16 02:44:56;;;;;;;;;;;11.60;88.00;;;;;;4977854;28;20400;-79
2023/12/16 02:47:22;;;;;;;;;;;11.60;87.70;;;;;;4977851;28;19906;-78
2023/12/16 02:49:47;;;;;;;;;;;11.60;87.70;;;;;;4977566;28;19906;-79
2023/12/16 02:52:13;;;;;;;;;;;11.60;87.80;;;;;;4977598;28;19936;-78
2023/12/16 02:54:38;;;;;;;;;;;11.60;87.80;;;;;;4977761;28;19906;-78
2023/12/16 02:57:04;;;;;;;;;;;11.60;87.80;;;;;;4995219;28;19909;-80
2023/12/16 02:59:29;;;;;;;;;;;11.60;87.80;;;;;;4994902;28;20267;-78
2023/12/16 03:01:54;;;;;;;;;;;11.60;87.80;;;;;;4995146;28;19906;-78
2023/12/16 03:04:20;;;;;;;;;;;11.60;87.80;;;;;;4977608;28;20302;-78
2023/12/16 03:06:45;;;;;;;;;;;11.60;87.80;;;;;;4977927;28;19916;-78
2023/12/16 03:09:11;;;;;;;;;;;11.60;87.80;;;;;;4977453;28;19981;-79
2023/12/16 03:11:37;;;;;;;;;;;11.60;87.80;;;;;;4977609;28;20362;-78
2023/12/16 03:14:02;;;;;;;;;;;11.60;87.70;;;;;;4977761;28;19905;-79
2023/12/16 03:16:28;;;;;;;;;;;11.60;87.80;;;;;;4977491;28;19936;-78
2023/12/16 03:18:53;;;;;;;;;;;11.60;87.80;;;;;;4977002;28;19917;-79
2023/12/16 03:21:19;;;;;;;;;;;11.60;87.90;;;;;;4977355;28;20380;-78
2023/12/16 03:23:44;;;;;;;;;;;11.60;87.80;;;;;;4977263;28;19916;-79
2023/12/16 03:26:09;;;;;;;;;;;11.60;87.90;;;;;;4977179;28;20000;-79
2023/12/16 03:28:35;;;;;;;;;;;11.60;87.80;;;;;;4977298;28;19910;-78
2023/12/16 03:31:00;;;;;;;;;;;11.60;87.80;;;;;;4977293;28;19944;-80
2023/12/16 03:33:26;;;;;;;;;;;11.60;87.80;;;;;;4977193;28;20374;-79
2023/12/16 03:35:51;;;;;;;;;;;11.60;87.80;;;;;;4994819;28;19906;-79
2023/12/16 03:38:17;;;;;;;;;;;11.60;88.30;;;;;;4977105;28;19913;-78
2023/12/16 03:40:42;;;;;;;;;;;11.60;87.90;;;;;;4977211;28;19913;-78
2023/12/16 03:43:08;;;;;;;;;;;11.60;87.80;;;;;;4964577;28;19916;-78
2023/12/16 03:45:33;;;;;;;;;;;11.60;87.80;;;;;;4946738;29;19910;-79
2023/12/16 03:47:58;;;;;;;;;;;11.60;87.80;;;;;;4938183;29;19906;-79
2023/12/16 03:50:24;;;;;;;;;;;11.60;87.80;;;;;;4955472;29;19907;-79
2023/12/16 03:52:49;;;;;;;;;;;11.60;87.80;;;;;;4938783;29;20340;-78
2023/12/16 03:55:14;;;;;;;;;;;11.60;87.80;;;;;;4938018;29;20389;-79
2023/12/16 03:57:40;;;;;;;;;;;11.60;87.80;;;;;;4938524;29;20252;-79
2023/12/16 04:00:08;;;;;;;;;;;11.60;87.80;;;;;;4938189;29;19910;-79
2023/12/16 04:02:33;;;;;;;;;;;11.60;87.80;;;;;;4938345;29;19906;-78
2023/12/16 04:04:59;;;;;;;;;;;11.60;87.80;;;;;;4938317;29;19906;-78
2023/12/16 04:07:24;;;;;;;;;;;11.60;87.80;;;;;;4955661;29;19909;-79
2023/12/16 04:09:49;;;;;;;;;;;11.60;87.80;;;;;;4938084;29;19902;-78
2023/12/16 04:12:15;;;;;;;;;;;11.60;88.30;;;;;;4955298;28;19902;-79
2023/12/16 04:14:40;;;;;;;;;;;11.60;87.80;;;;;;4938002;29;20318;-78
2023/12/16 04:17:06;;;;;;;;;;;11.60;87.70;;;;;;4955042;29;19934;-78
2023/12/16 04:19:31;;;;;;;;;;;11.60;87.70;;;;;;4937864;29;20307;-79
2023/12/16 04:21:57;;;;;;;;;;;11.60;87.80;;;;;;4937993;28;19902;-78
2023/12/16 04:24:22;;;;;;;;;;;11.60;87.80;;;;;;4938085;29;19961;-78
2023/12/16 04:26:48;;;;;;;;;;;11.60;87.80;;;;;;4937962;29;19902;-78
2023/12/16 04:29:30;;;;;;;;;;;11.60;87.80;;;;;;5102704;27;19913;-79
2023/12/16 04:31:56;;;;;;;;;;;11.50;87.80;;;;;;5070769;28;20015;-78
2023/12/16 04:34:21;;;;;;;;;;;11.60;87.80;;;;;;5069155;28;20328;-78
2023/12/16 04:36:47;;;;;;;;;;;11.60;87.80;;;;;;5070159;28;19991;-78
2023/12/16 04:39:12;;;;;;;;;;;11.60;87.80;;;;;;5068349;28;20007;-79
2023/12/16 04:41:38;;;;;;;;;;;11.60;87.80;;;;;;5068744;28;19955;-78
2023/12/16 04:44:04;;;;;;;;;;;11.60;87.80;;;;;;5069671;28;19904;-78
2023/12/16 04:46:29;;;;;;;;;;;11.50;87.80;;;;;;5068895;28;19955;-79
2023/12/16 04:48:54;;;;;;;;;;;11.60;87.80;;;;;;5067796;28;20630;-77
2023/12/16 04:51:20;;;;;;;;;;;11.60;87.80;;;;;;5068474;28;19909;-79
2023/12/16 04:53:45;;;;;;;;;;;11.60;88.30;;;;;;5068421;28;19932;-78
2023/12/16 04:56:11;;;;;;;;;;;11.60;87.80;;;;;;5068316;28;19905;-79
2023/12/16 04:58:36;;;;;;;;;;;11.60;87.80;;;;;;5069264;28;19957;-79
2023/12/16 05:01:03;;;;;;;;;;;11.60;87.70;;;;;;5068006;28;19909;-79
2023/12/16 05:03:30;;;;;;;;;;;11.60;87.80;;;;;;5067921;28;19912;-79
2023/12/16 05:05:55;;;;;;;;;;;11.60;87.70;;;;;;5069182;28;19927;-79
2023/12/16 05:08:20;;;;;;;;;;;11.60;87.80;;;;;;5067407;28;20666;-80
2023/12/16 05:10:47;;;;;;;;;;;11.60;87.80;;;;;;5069092;28;19904;-79
2023/12/16 05:13:13;;;;;;;;;;;11.60;87.80;;;;;;5067710;28;20476;-79
2023/12/16 05:15:39;;;;;;;;;;;11.60;87.80;;;;;;5068011;28;19912;-78
2023/12/16 05:18:05;;;;;;;;;;;11.60;87.80;;;;;;5068081;28;19909;-79
2023/12/16 05:20:31;;;;;;;;;;;11.60;87.80;;;;;;5067723;28;20422;-79
2023/12/16 05:22:56;;;;;;;;;;;11.60;87.70;;;;;;5069098;28;19905;-79
2023/12/16 05:25:22;;;;;;;;;;;11.60;87.70;;;;;;5068014;28;19909;-79
2023/12/16 05:27:47;;;;;;;;;;;11.60;87.70;;;;;;5074248;28;19929;-79
2023/12/16 05:30:12;;;;;;;;;;;11.60;87.70;;;;;;5087958;28;20341;-78
2023/12/16 05:32:38;;;;;;;;;;;11.50;87.70;;;;;;5088544;28;19905;-79
2023/12/16 05:35:04;;;;;;;;;;;11.60;87.70;;;;;;5088005;28;20276;-78
2023/12/16 05:37:29;;;;;;;;;;;11.60;87.80;;;;;;5089137;28;20284;-78
2023/12/16 05:39:54;;;;;;;;;;;11.60;87.70;;;;;;5080754;28;20360;-78
2023/12/16 05:42:20;;;;;;;;;;;11.60;87.70;;;;;;5073019;28;19908;-77
2023/12/16 05:44:45;;;;;;;;;;;11.60;87.70;;;;;;5065520;28;20420;-78
2023/12/16 05:47:11;;;;;;;;;;;11.60;87.70;;;;;;5054184;28;19905;-79
2023/12/16 05:49:36;;;;;;;;;;;11.50;87.70;;;;;;5054051;28;19904;-79
2023/12/16 05:52:02;;;;;;;;;;;11.60;87.70;;;;;;5055319;28;19955;-78
2023/12/16 05:54:27;;;;;;;;;;;11.50;87.70;;;;;;5054623;28;20012;-80
2023/12/16 05:56:54;;;;;;;;;;;11.60;87.80;;;;;;5056435;28;20266;-80
2023/12/16 05:59:20;;;;;;;;;;;11.50;87.60;;;;;;5063372;28;19913;-80
2023/12/16 06:01:45;;;;;;;;;;;11.50;87.60;;;;;;5060028;28;19996;-81
2023/12/16 06:04:11;;;;;;;;;;;11.50;87.60;;;;;;5058502;28;19909;-79
2023/12/16 06:06:36;;;;;;;;;;;11.50;87.70;;;;;;5057739;28;19930;-80
2023/12/16 06:09:01;;;;;;;;;;;11.60;87.70;;;;;;5057496;28;19981;-79
2023/12/16 06:11:27;;;;;;;;;;;11.50;87.60;;;;;;5058383;28;19909;-80
2023/12/16 06:13:52;;;;;;;;;;;11.50;87.60;;;;;;5056465;28;20003;-80
2023/12/16 06:16:18;;;;;;;;;;;11.50;87.60;;;;;;5058701;28;19916;-80
2023/12/16 06:18:45;;;;;;;;;;;11.60;87.70;;;;;;5072648;28;19937;-80
2023/12/16 06:21:10;;;;;;;;;;;11.50;87.60;;;;;;5080454;28;19912;-81
2023/12/16 06:23:36;;;;;;;;;;;11.50;87.60;;;;;;5082618;28;19912;-82
2023/12/16 06:26:01;;;;;;;;;;;11.50;87.60;;;;;;5076612;28;19912;-81
2023/12/16 06:28:27;;;;;;;;;;;11.50;87.70;;;;;;5076029;28;20285;-80
2023/12/16 06:30:52;;;;;;;;;;;11.50;87.60;;;;;;5077011;28;19913;-81
2023/12/16 06:33:17;;;;;;;;;;;11.50;87.60;;;;;;5076527;28;19915;-80
2023/12/16 06:35:43;;;;;;;;;;;11.50;87.60;;;;;;5075928;28;19923;-81
2023/12/16 06:38:09;;;;;;;;;;;11.50;87.60;;;;;;5075859;28;19915;-82
2023/12/16 06:40:34;;;;;;;;;;;11.60;87.70;;;;;;5077123;28;19912;-79
2023/12/16 06:43:00;;;;;;;;;;;11.50;87.60;;;;;;5077942;28;19917;-80
2023/12/16 06:45:28;;;;;;;;;;;11.60;87.70;;;;;;5077424;28;19912;-79
2023/12/16 06:47:54;;;;;;;;;;;11.60;87.70;;;;;;5076379;28;19917;-80
2023/12/16 06:50:19;;;;;;;;;;;11.60;87.70;;;;;;5073905;28;19913;-80
2023/12/16 06:52:45;;;;;;;;;;;11.60;87.70;;;;;;5076845;28;19919;-81
2023/12/16 06:55:10;;;;;;;;;;;11.50;87.70;;;;;;5075136;28;19923;-79
2023/12/16 06:57:38;;;;;;;;;;;11.60;87.70;;;;;;5073530;28;19917;-82
2023/12/16 07:00:06;;;;;;;;;;;11.50;87.70;;;;;;5074822;28;19919;-79
2023/12/16 07:02:31;;;;;;;;;;;11.50;87.70;;;;;;5074911;28;19909;-80
2023/12/16 07:04:57;;;;;;;;;;;11.50;87.70;;;;;;5076563;28;19935;-79
2023/12/16 07:07:23;;;;;;;;;;;11.50;87.70;;;;;;5074279;28;20498;-80
2023/12/16 07:09:49;;;;;;;;;;;11.50;87.60;;;;;;5074173;28;19908;-80
2023/12/16 07:12:14;;;;;;;;;;;11.50;87.60;;;;;;5073750;28;19916;-80
2023/12/16 07:14:39;;;;;;;;;;;11.50;87.50;;;;;;5075152;28;20543;-78
2023/12/16 07:17:05;;;;;;;;;;;11.50;87.50;;;;;;5074709;28;20428;-79
2023/12/16 07:19:31;;;;;;;;;;;11.50;87.50;;;;;;5062581;28;19921;-80
2023/12/16 07:22:00;;;;;;;;;;;11.50;87.50;;;;;;5075789;28;19913;-80
2023/12/16 07:24:25;;;;;;;;;;;11.50;87.50;;;;;;5058716;28;19921;-80
2023/12/16 07:26:50;;;;;;;;;;;11.50;87.50;;;;;;5074561;28;19908;-78
2023/12/16 07:29:16;;;;;;;;;;;11.50;87.50;;;;;;5058565;28;20000;-81
2023/12/16 07:31:46;;;;;;;;;;;11.50;87.50;;;;;;5067471;28;19916;-81
2023/12/16 07:34:11;;;;;;;;;;;11.50;87.50;;;;;;5076065;28;19942;-80
2023/12/16 07:36:36;;;;;;;;;;;11.50;87.50;;;;;;5074916;28;20427;-81
2023/12/16 07:39:02;;;;;;;;;;;11.50;87.50;;;;;;5074456;28;19998;-79
2023/12/16 07:41:27;;;;;;;;;;;11.50;87.50;;;;;;5076123;28;19968;-80
2023/12/16 07:43:53;;;;;;;;;;;11.50;87.50;;;;;;5076598;28;19915;-79
2023/12/16 07:46:18;;;;;;;;;;;11.50;87.50;;;;;;5074964;28;19904;-79
2023/12/16 07:48:44;;;;;;;;;;;11.50;87.50;;;;;;5074576;28;19916;-79
2023/12/16 07:51:16;;;;;;;;;;;11.50;87.50;;;;;;5073827;28;20352;-79
2023/12/16 07:53:48;;;;;;;;;;;11.60;87.60;;;;;;5073527;28;19905;-79
2023/12/16 07:56:21;;;;;;;;;;;11.50;87.50;;;;;;5072586;28;20458;-79
2023/12/16 07:58:48;;;;;;;;;;;11.50;87.50;;;;;;5072618;28;19908;-78
2023/12/16 08:01:15;;;;;;;;;;;11.50;87.50;;;;;;5071449;28;19904;-78
2023/12/16 08:03:40;;;;;;;;;;;11.50;87.50;;;;;;5073438;28;19909;-78
2023/12/16 08:06:06;;;;;;;;;;;11.50;87.50;;;;;;5073168;28;19963;-80
2023/12/16 08:08:31;;;;;;;;;;;11.50;87.50;;;;;;5074579;28;19912;-77
2023/12/16 08:10:57;;;;;;;;;;;11.50;87.60;;;;;;5074725;28;19996;-80
2023/12/16 08:13:22;;;;;;;;;;;11.50;87.50;;;;;;5072268;28;19987;-77
2023/12/16 08:15:48;;;;;;;;;;;11.50;87.30;;;;;;5073414;28;20023;-78
2023/12/16 08:18:13;;;;;;;;;;;11.50;87.30;;;;;;5074540;28;19919;-78
2023/12/16 08:20:39;;;;;;;;;;;11.60;87.40;;;;;;5072708;28;20318;-81
2023/12/16 08:23:08;;;;;;;;;;;11.60;87.20;;;;;;5073557;28;19995;-80
2023/12/16 08:25:35;;;;;;;;;;;11.60;87.10;;;;;;5074711;28;20319;-81
2023/12/16 08:28:00;;;;;;;;;;;11.60;87.10;;;;;;5072947;28;19916;-80
2023/12/16 08:30:26;;;;;;;;;;;11.60;87.10;;;;;;5072995;28;19908;-79
2023/12/16 08:32:51;;;;;;;;;;;11.60;87.20;;;;;;5070924;28;19924;-78
2023/12/16 08:35:17;;;;;;;;;;;11.50;87.10;;;;;;5064020;28;20388;-80
2023/12/16 08:37:43;;;;;;;;;;;11.60;87.10;;;;;;5055887;28;19909;-80
2023/12/16 08:40:09;;;;;;;;;;;11.60;87.20;;;;;;5054773;28;19948;-82
2023/12/16 08:42:35;;;;;;;;;;;11.60;87.20;;;;;;5055809;28;19923;-81
2023/12/16 08:45:01;;;;;;;;;;;11.60;87.10;;;;;;5066772;28;20455;-80
2023/12/16 08:47:26;;;;;;;;;;;11.60;87.00;;;;;;5076627;28;19912;-78
2023/12/16 08:49:52;;;;;;;;;;;11.70;87.10;;;;;;5074665;28;19913;-82
2023/12/16 08:52:17;;;;;;;;;;;11.70;86.90;;;;;;5074976;28;19913;-80
2023/12/16 08:54:42;;;;;;;;;;;11.70;86.80;;;;;;5074553;28;19909;-80
2023/12/16 08:57:08;;;;;;;;;;;11.70;86.80;;;;;;5075081;28;19909;-81
2023/12/16 08:59:36;;;;;;;;;;;11.70;86.70;;;;;;5074438;28;19912;-81
2023/12/16 09:02:03;;;;;;;;;;;11.70;86.70;;;;;;5074535;28;19919;-80
2023/12/16 09:04:28;;;;;;;;;;;11.80;87.00;;;;;;5074680;28;20276;-80
2023/12/16 09:06:54;;;;;;;;;;;11.80;86.30;;;;;;5074633;28;19912;-80
2023/12/16 09:09:19;;;;;;;;;;;11.80;86.40;;;;;;5073564;28;19916;-81
2023/12/16 09:11:45;;;;;;;;;;;11.80;86.50;;;;;;5075093;28;19912;-80
2023/12/16 09:14:11;;;;;;;;;;;11.80;86.40;;;;;;5073677;28;19923;-81
2023/12/16 09:16:36;;;;;;;;;;;11.80;86.30;;;;;;5077076;28;19995;-81
2023/12/16 09:19:03;;;;;;;;;;;11.80;86.50;;;;;;5077207;28;19967;-79
2023/12/16 09:21:29;;;;;;;;;;;11.80;86.40;;;;;;5078335;28;19968;-80
2023/12/16 09:23:54;;;;;;;;;;;11.80;86.50;;;;;;5077666;28;19951;-81
2023/12/16 09:26:21;;;;;;;;;;;11.80;86.50;;;;;;5078163;28;19999;-80
2023/12/16 09:28:47;;;;;;;;;;;11.80;86.60;;;;;;5077640;28;19935;-81
2023/12/16 09:31:12;;;;;;;;;;;11.70;86.70;;;;;;5076633;28;19908;-81
2023/12/16 09:33:38;;;;;;;;;;;11.70;86.80;;;;;;5077645;28;20280;-79
2023/12/16 09:36:04;;;;;;;;;;;11.70;86.70;;;;;;5080519;28;19919;-81
2023/12/16 09:38:29;;;;;;;;;;;11.70;86.70;;;;;;5077805;28;19975;-80
2023/12/16 09:40:55;;;;;;;;;;;11.70;86.70;;;;;;5078187;28;19913;-80
2023/12/16 09:43:21;;;;;;;;;;;11.80;86.70;;;;;;5076780;28;19917;-79
2023/12/16 09:45:47;;;;;;;;;;;11.80;86.50;;;;;;5077021;28;19931;-82
2023/12/16 09:48:14;;;;;;;;;;;11.80;86.60;;;;;;5076500;28;19916;-79
2023/12/16 09:50:42;;;;;;;;;;;11.80;86.90;;;;;;5075854;28;19908;-78
2023/12/16 09:53:08;;;;;;;;;;;11.80;86.40;;;;;;5075209;28;19916;-80
2023/12/16 09:55:33;;;;;;;;;;;11.80;86.50;;;;;;5077073;28;19915;-81
2023/12/16 09:57:59;;;;;;;;;;;11.80;86.50;;;;;;5077439;28;20418;-80
2023/12/16 10:00:26;;;;;;;;;;;11.70;86.40;;;;;;5077860;28;19908;-80
2023/12/16 10:02:53;;;;;;;;;;;11.70;85.90;;;;;;5076936;28;19913;-80
2023/12/16 10:05:19;;;;;;;;;;;11.70;86.00;;;;;;5078183;28;19962;-79
2023/12/16 10:07:45;;;;;;;;;;;11.70;85.80;;;;;;5078752;28;19908;-81
2023/12/16 10:10:12;;;;;;;;;;;11.80;86.00;;;;;;5076604;28;20584;-79
2023/12/16 10:12:38;;;;;;;;;;;11.70;86.10;;;;;;5074832;28;19920;-79
2023/12/16 10:15:03;;;;;;;;;;;11.80;86.20;;;;;;5075581;28;19909;-80
2023/12/16 10:17:29;;;;;;;;;;;11.70;86.20;;;;;;5076149;28;19912;-80
2023/12/16 10:19:54;;;;;;;;;;;11.80;86.20;;;;;;5074470;28;19912;-81
2023/12/16 10:22:20;;;;;;;;;;;11.80;86.30;;;;;;5074875;28;19913;-79
2023/12/16 10:24:45;;;;;;;;;;;11.80;86.40;;;;;;5068528;28;20356;-79
2023/12/16 10:27:11;;;;;;;;;;;11.80;86.30;;;;;;5073367;28;19999;-79
2023/12/16 10:29:40;;;;;;;;;;;11.80;86.20;;;;;;5065567;28;19913;-76
2023/12/16 10:32:09;;;;;;;;;;;11.80;86.10;;;;;;5054005;28;19916;-77
2023/12/16 10:34:35;;;;;;;;;;;11.80;86.30;;;;;;5052796;28;19909;-77
2023/12/16 10:37:07;;;;;;;;;;;11.80;86.20;;;;;;5053918;28;20396;-76
2023/12/16 10:39:33;;;;;;;;;;;11.80;86.30;;;;;;5052278;28;19915;-76
2023/12/16 10:41:58;;;;;;;;;;;11.80;86.30;;;;;;5062326;28;19909;-75
2023/12/16 10:44:24;;;;;;;;;;;11.80;86.30;;;;;;5074670;28;20434;-78
2023/12/16 10:46:51;;;;;;;;;;;11.80;86.40;;;;;;5074085;28;20395;-79
2023/12/16 10:49:17;;;;;;;;;;;11.80;86.40;;;;;;5075715;28;19912;-78
2023/12/16 10:51:45;;;;;;;;;;;11.80;86.50;;;;;;5073583;28;19931;-78
2023/12/16 10:54:17;;;;;;;;;;;11.80;86.50;;;;;;5074792;28;19912;-78
2023/12/16 10:56:48;;;;;;;;;;;11.80;86.70;;;;;;5072832;28;19909;-78
2023/12/16 10:59:18;;;;;;;;;;;11.70;86.70;;;;;;5072599;28;19938;-77
2023/12/16 11:01:49;;;;;;;;;;;11.70;86.60;;;;;;5074199;28;19908;-79
2023/12/16 11:04:23;;;;;;;;;;;11.70;86.70;;;;;;5074232;28;19909;-78
2023/12/16 11:07:09;;;;;;;;;;;11.70;86.80;;;;;;5074137;28;20461;-79
2023/12/16 11:09:34;;;;;;;;;;;11.70;86.70;;;;;;5073912;28;19913;-79
2023/12/16 11:12:01;;;;;;;;;;;11.70;86.80;;;;;;5072475;28;19908;-78
2023/12/16 11:14:31;;;;;;;;;;;11.70;86.90;;;;;;5072836;28;19909;-78
2023/12/16 11:17:22;;;;;;;;;;;11.70;86.90;;;;;;5072785;28;19908;-79
2023/12/16 11:19:56;;;;;;;;;;;11.70;86.90;;;;;;5073685;28;19954;-79
2023/12/16 11:22:23;;;;;;;;;;;11.70;86.60;;;;;;5073733;28;19909;-79
2023/12/16 11:24:50;;;;;;;;;;;11.70;86.20;;;;;;5073871;28;19909;-80
2023/12/16 11:27:16;;;;;;;;;;;11.70;86.20;;;;;;5072249;28;20015;-80
2023/12/16 11:29:42;;;;;;;;;;;11.70;86.30;;;;;;5072243;28;20389;-79
2023/12/16 11:32:08;;;;;;;;;;;11.70;86.30;;;;;;5072236;28;20296;-79
2023/12/16 11:34:41;;;;;;;;;;;11.80;86.40;;;;;;5072292;28;19908;-79
2023/12/16 11:37:06;;;;;;;;;;;11.80;86.30;;;;;;5071746;28;20289;-79
2023/12/16 11:39:42;;;;;;;;;;;11.80;86.40;;;;;;5073401;28;19908;-78
2023/12/16 11:42:10;;;;;;;;;;;11.70;86.50;;;;;;5072411;28;19916;-79
2023/12/16 11:44:48;;;;;;;;;;;11.70;86.60;;;;;;5072124;28;19955;-79
2023/12/16 11:47:26;;;;;;;;;;;11.70;86.60;;;;;;5073384;28;19912;-78
2023/12/16 11:49:52;;;;;;;;;;;11.70;86.90;;;;;;5079505;28;19912;-79
2023/12/16 11:52:20;;;;;;;;;;;11.70;86.90;;;;;;5092217;28;19937;-80
2023/12/16 11:54:49;;;;;;;;;;;11.70;87.10;;;;;;5092046;28;20072;-79
2023/12/16 11:57:18;;;;;;;;;;;11.70;86.90;;;;;;5093536;28;19915;-77
2023/12/16 11:59:43;;;;;;;;;;;11.70;87.10;;;;;;5093420;28;19908;-79
2023/12/16 12:02:09;;;;;;;;;;;11.70;87.10;;;;;;5084183;28;19914;-77
2023/12/16 12:04:35;;;;;;;;;;;11.70;87.10;;;;;;5071727;28;19915;-79
2023/12/16 12:07:01;;;;;;;;;;;11.70;86.90;;;;;;5071831;28;20388;-79
2023/12/16 12:09:26;;;;;;;;;;;11.70;87.10;;;;;;5072690;28;19983;-79
2023/12/16 12:11:52;;;;;;;;;;;11.70;87.00;;;;;;5071717;28;19908;-79
2023/12/16 12:14:17;;;;;;;;;;;11.70;87.10;;;;;;5071548;28;19919;-79
2023/12/16 12:16:43;;;;;;;;;;;11.70;86.90;;;;;;5071772;28;19948;-79
2023/12/16 12:19:08;;;;;;;;;;;11.70;87.20;;;;;;5072784;28;19995;-79
2023/12/16 12:21:34;;;;;;;;;;;11.70;87.10;;;;;;5071730;28;19915;-79
2023/12/16 12:23:59;;;;;;;;;;;11.70;87.10;;;;;;5072938;28;19999;-78
2023/12/16 12:26:25;;;;;;;;;;;11.70;87.10;;;;;;5071678;28;19991;-79
2023/12/16 12:29:01;;;;;;;;;;;11.70;87.40;;;;;;5072634;28;20277;-79
2023/12/16 12:31:27;;;;;;;;;;;11.70;87.40;;;;;;5071749;28;20441;-78
2023/12/16 12:33:52;;;;;;;;;;;11.60;87.00;;;;;;5072036;28;19913;-79
2023/12/16 12:36:17;;;;;;;;;;;11.70;87.20;;;;;;5071838;28;19908;-78
2023/12/16 12:38:53;;;;;;;;;;;11.70;87.30;;;;;;5071353;28;19909;-79
2023/12/16 12:41:19;;;;;;;;;;;11.70;87.10;;;;;;5071493;28;19958;-79
2023/12/16 12:43:44;;;;;;;;;;;11.70;87.10;;;;;;5072639;28;20331;-79
2023/12/16 12:46:12;;;;;;;;;;;11.70;87.20;;;;;;5071493;28;20067;-79
2023/12/16 12:48:38;;;;;;;;;;;11.70;87.30;;;;;;5072309;28;19919;-79
2023/12/16 12:51:03;;;;;;;;;;;11.70;87.30;;;;;;5075173;28;19995;-79
2023/12/16 12:53:29;;;;;;;;;;;11.70;87.40;;;;;;5075499;28;19962;-79
2023/12/16 12:55:55;;;;;;;;;;;11.70;87.40;;;;;;5077024;28;20296;-79
2023/12/16 12:58:22;;;;;;;;;;;11.70;87.10;;;;;;5074952;28;19909;-79
2023/12/16 13:00:49;;;;;;;;;;;11.70;87.40;;;;;;5076690;28;19908;-79
2023/12/16 13:03:15;;;;;;;;;;;11.70;87.50;;;;;;5075705;28;19908;-78
2023/12/16 13:05:41;;;;;;;;;;;11.70;87.20;;;;;;5076674;28;20356;-79
2023/12/16 13:08:10;;;;;;;;;;;11.70;87.20;;;;;;5074961;28;19912;-79
2023/12/16 13:10:36;;;;;;;;;;;11.70;87.30;;;;;;5075075;28;19908;-79
2023/12/16 13:13:01;;;;;;;;;;;11.70;87.40;;;;;;5076289;28;19912;-79
2023/12/16 13:15:26;;;;;;;;;;;11.60;87.30;;;;;;5075109;28;19908;-79
2023/12/16 13:17:52;;;;;;;;;;;11.70;87.50;;;;;;5076363;28;19909;-79
2023/12/16 13:20:17;;;;;;;;;;;11.60;87.30;;;;;;5074679;28;20388;-79
2023/12/16 13:22:43;;;;;;;;;;;11.70;87.30;;;;;;5074827;28;19958;-79
2023/12/16 13:25:11;;;;;;;;;;;11.70;87.30;;;;;;5075072;28;19920;-79
2023/12/16 13:27:40;;;;;;;;;;;11.70;87.60;;;;;;5074599;28;20327;-79
2023/12/16 13:30:06;;;;;;;;;;;11.60;87.50;;;;;;5074670;28;19908;-79
2023/12/16 13:32:33;;;;;;;;;;;11.60;87.30;;;;;;5074492;28;19917;-79
2023/12/16 13:34:58;;;;;;;;;;;11.70;87.30;;;;;;5074531;28;20292;-79
2023/12/16 13:37:24;;;;;;;;;;;11.70;87.40;;;;;;5074683;28;19909;-79
2023/12/16 13:39:49;;;;;;;;;;;11.70;87.40;;;;;;5074406;28;19916;-79
2023/12/16 13:42:15;;;;;;;;;;;11.70;87.60;;;;;;5074314;28;19961;-79
2023/12/16 13:44:40;;;;;;;;;;;11.60;87.30;;;;;;5074471;28;19912;-79
2023/12/16 13:47:06;;;;;;;;;;;11.60;87.30;;;;;;5074509;28;19913;-79
2023/12/16 13:49:31;;;;;;;;;;;11.70;87.40;;;;;;5074204;28;19919;-79
2023/12/16 13:51:56;;;;;;;;;;;11.60;87.40;;;;;;5074408;28;19956;-79
2023/12/16 13:54:22;;;;;;;;;;;11.70;87.40;;;;;;5074206;28;19962;-79
2023/12/16 13:56:47;;;;;;;;;;;11.70;87.50;;;;;;5074206;28;19915;-79
2023/12/16 13:59:13;;;;;;;;;;;11.70;87.50;;;;;;5075282;28;19954;-79
2023/12/16 14:01:39;;;;;;;;;;;11.70;87.30;;;;;;5073645;28;19909;-79
2023/12/16 14:04:04;;;;;;;;;;;11.70;87.30;;;;;;5074019;28;19909;-79
2023/12/16 14:06:30;;;;;;;;;;;11.70;87.40;;;;;;5074126;28;19958;-80
2023/12/16 14:08:55;;;;;;;;;;;11.60;87.30;;;;;;5073858;28;19916;-79
2023/12/16 14:11:21;;;;;;;;;;;11.60;87.40;;;;;;5074180;28;19914;-79